Terminal Aerodrome Forecast
Issued by NWS

Home | Current Version | Previous Version | Text Only | Print | Product List | Glossary On
Versions: 1 2 3 4 5 6 7 8 9 10 11 12 13 14 15 16
000
FTUS45 KVEF 032325
TAFBIH
TAF
KBIH 032325Z 0400/0424 16014G20KT 6SM FU SCT150
     FM040900 33006KT P6SM FEW250
     FM041700 17014G20KT P6SM SKC
     FM042000 27018G26KT P6SM FEW150=

USA.gov is the U.S. government's official web portal to all federal, state and local government web resources and services.